Airfield :
LOGIN :

Register | Disclaimer

   EN    FR    IT 

 










Legend :    VFR   Marginal VFR   IFR   Intensive IFR   Very Intensive IFR
Visi :
Ceiling :
>= 8 km
>= 3000ft
5 to 8 km
1000 to 3000 ft
1500m to 5 km
500 to 1000 ft
800 to 1500m
200 to 500 ft
< 800m
< 200 ft
Symbols :   Thunderstorms  Fog  Heavy snow  Heavy precipitations  Wind > 20 kt
SIGMETs :     Misc.  Thunderstorms  Icing  Turbulence  Mountain Waves  Volcanic Ashes







- Airport Elevation : 755 ft
- IATA code : KSC


LZKZ - Kosice

CURRENT METAR :
  • 181800Z 02015KT 9999 BKN041 01/M04 Q1025

EXPIRED METARs :
  • 181730Z 03011KT 9999 SCT040 BKN044 01/M05 Q1025
  • 181700Z 02012KT 9999 SCT049 01/M05 Q1025 NOSIG
  • 181630Z 02012KT 9999 BKN048 01/M05 Q1025 NOSIG
  • 181600Z 01012KT 9999 BKN038 02/M04 Q1025 NOSIG
  • 181530Z 02013KT 9999 SCT032 BKN055 02/M04 Q1024 NOSIG

TAF TAF LZKZ
Valid from the 18 at 18:00 until the 19 at 18:00 UTC


181700Z 1818/1918 01012KT 9999 BKN045
TEMPO 1911/1914 01020KT
No reported NOTAMs for that airfield.



MET'MAP, your aeronautical weather chart ! - Copyright ORBIFLY December 2007 - Disclaimer

ORBIFLY MET'MAP TEAM :

Programming & Development : Alexandra Zaïnal
Concept & Development : Baudouin d'Aumeries
Co-Development & Prog : Marc-Olivier Méhu
Technical & hardware support : Manuel Goepfert

Contact : metmap@orbifly.com




SOURCES & CREDITS :

   NOAA